createdAt,value
2018-07-31T00:00:07.942Z,28.70
2018-07-31T00:01:12.302Z,28.70
2018-07-31T00:02:15.703Z,28.70
2018-07-31T00:03:19.098Z,28.70
2018-07-31T00:06:29.762Z,28.60
2018-07-31T00:07:33.143Z,28.60
2018-07-31T00:08:36.527Z,28.60
2018-07-31T00:09:39.901Z,28.50
2018-07-31T00:10:44.360Z,28.50
2018-07-31T00:11:47.759Z,28.40
2018-07-31T00:12:51.127Z,28.40
2018-07-31T00:13:54.501Z,28.30
2018-07-31T00:14:57.875Z,28.30
2018-07-31T00:16:02.743Z,28.20
2018-07-31T00:17:06.203Z,28.10
2018-07-31T00:18:09.573Z,28.10
2018-07-31T00:19:12.939Z,28.00
2018-07-31T00:21:21.171Z,28.00
2018-07-31T00:22:24.591Z,28.00
2018-07-31T00:23:27.963Z,28.00
2018-07-31T00:24:31.335Z,28.00
2018-07-31T00:25:35.726Z,28.00
2018-07-31T00:26:39.111Z,28.00
2018-07-31T00:27:42.499Z,28.00
2018-07-31T00:28:45.875Z,28.00
2018-07-31T00:30:53.397Z,28.00
2018-07-31T00:31:56.815Z,27.90
2018-07-31T00:33:00.383Z,27.90
2018-07-31T00:34:03.759Z,27.90
2018-07-31T00:35:08.402Z,27.80
2018-07-31T00:36:12.917Z,27.70
2018-07-31T00:37:16.335Z,27.70
2018-07-31T00:39:22.847Z,27.70
2018-07-31T00:40:28.609Z,27.60
2018-07-31T00:41:32.007Z,27.60
2018-07-31T00:42:35.387Z,27.70
2018-07-31T00:43:38.759Z,27.70
2018-07-31T00:44:42.139Z,27.70
2018-07-31T00:45:46.969Z,27.70
2018-07-31T00:46:50.382Z,27.70
2018-07-31T00:47:53.755Z,27.70
2018-07-31T00:48:57.119Z,27.80
2018-07-31T00:50:00.504Z,27.80
2018-07-31T00:51:05.425Z,27.70
2018-07-31T00:54:14.983Z,27.70
2018-07-31T00:55:19.656Z,27.60
2018-07-31T00:56:23.866Z,27.60
2018-07-31T00:57:27.265Z,27.60
2018-07-31T00:58:30.759Z,27.50
2018-07-31T00:59:34.151Z,27.50
2018-07-31T01:00:38.674Z,27.50
2018-07-31T01:01:42.061Z,27.50
2018-07-31T01:02:45.475Z,27.40
2018-07-31T01:04:51.907Z,27.40
2018-07-31T01:05:56.210Z,27.30
2018-07-31T01:06:59.631Z,27.30
2018-07-31T01:08:03.011Z,27.30
2018-07-31T01:09:08.707Z,27.30
2018-07-31T01:10:13.032Z,27.30
2018-07-31T01:11:17.363Z,27.30
2018-07-31T01:12:20.763Z,27.20
2018-07-31T01:13:24.131Z,27.20
2018-07-31T01:14:27.507Z,27.20
2018-07-31T01:15:32.065Z,27.20
2018-07-31T01:16:35.515Z,27.10
2018-07-31T01:17:38.899Z,27.10
2018-07-31T01:18:42.279Z,27.10
2018-07-31T01:19:45.651Z,27.10
2018-07-31T01:20:51.745Z,27.00
2018-07-31T01:21:55.182Z,27.10
2018-07-31T01:22:58.556Z,27.00
2018-07-31T01:24:01.955Z,27.00
2018-07-31T01:25:07.009Z,27.00
2018-07-31T01:26:11.971Z,27.00
2018-07-31T01:27:15.387Z,27.00
2018-07-31T01:28:18.765Z,27.00
2018-07-31T01:29:22.135Z,27.00
2018-07-31T01:30:26.487Z,27.00
2018-07-31T01:31:30.163Z,27.00
2018-07-31T01:32:33.555Z,27.10
2018-07-31T01:33:36.935Z,27.10
2018-07-31T01:34:40.307Z,27.10
2018-07-31T01:35:45.265Z,27.10
2018-07-31T01:36:48.656Z,27.10
2018-07-31T01:37:52.203Z,27.20
2018-07-31T01:38:55.571Z,27.20
2018-07-31T01:39:58.943Z,27.20
2018-07-31T01:41:03.379Z,27.10
2018-07-31T01:42:06.791Z,27.10
2018-07-31T01:43:10.170Z,27.10
2018-07-31T01:44:13.547Z,27.00
2018-07-31T01:45:18.080Z,27.00
2018-07-31T01:47:25.447Z,27.00
2018-07-31T01:48:28.820Z,27.00
2018-07-31T01:49:32.195Z,27.00
2018-07-31T01:50:36.703Z,27.00
2018-07-31T01:51:40.103Z,27.00
2018-07-31T01:52:43.535Z,27.00
2018-07-31T01:53:46.908Z,27.00
2018-07-31T01:54:50.747Z,27.00
2018-07-31T01:55:55.299Z,27.00
2018-07-31T01:56:58.707Z,27.00
2018-07-31T01:58:02.099Z,26.90
2018-07-31T01:59:05.467Z,26.90
2018-07-31T02:00:09.816Z,26.90
2018-07-31T02:01:14.197Z,26.90
2018-07-31T02:05:27.728Z,26.90
2018-07-31T02:06:31.195Z,26.90
2018-07-31T02:07:34.585Z,26.90
2018-07-31T02:08:38.015Z,26.90
2018-07-31T02:11:51.095Z,26.80
2018-07-31T02:12:54.471Z,26.80
2018-07-31T02:13:57.855Z,26.80
2018-07-31T02:15:01.243Z,26.80
2018-07-31T02:16:05.677Z,26.80
2018-07-31T02:17:09.083Z,26.80
2018-07-31T02:18:12.453Z,26.80
2018-07-31T02:19:15.843Z,26.80
2018-07-31T02:20:20.354Z,26.90
2018-07-31T02:21:24.457Z,26.80
2018-07-31T02:22:27.859Z,26.80
2018-07-31T02:23:31.227Z,26.80
2018-07-31T02:24:34.614Z,26.80
2018-07-31T02:25:39.295Z,26.80
2018-07-31T02:26:42.767Z,26.80
2018-07-31T02:27:46.147Z,26.80
2018-07-31T02:28:49.523Z,26.80
2018-07-31T02:29:58.287Z,26.80
2018-07-31T02:31:02.903Z,26.80
2018-07-31T02:32:06.296Z,26.80
2018-07-31T02:33:09.683Z,26.80
2018-07-31T02:34:13.064Z,26.80
2018-07-31T02:35:17.546Z,26.80
2018-07-31T02:36:21.997Z,26.80
2018-07-31T02:37:25.407Z,26.80
2018-07-31T02:38:28.776Z,26.80
2018-07-31T02:39:32.143Z,26.80
2018-07-31T02:40:37.125Z,26.70
2018-07-31T02:41:40.536Z,26.70
2018-07-31T02:42:43.919Z,26.60
2018-07-31T02:43:47.292Z,26.60
2018-07-31T02:44:50.693Z,26.60
2018-07-31T02:45:55.262Z,26.50
2018-07-31T02:46:58.722Z,26.50
2018-07-31T02:48:02.068Z,26.50
2018-07-31T02:49:05.689Z,26.50
2018-07-31T02:50:10.311Z,26.50
2018-07-31T02:52:17.667Z,26.50
2018-07-31T02:53:21.056Z,26.40
2018-07-31T02:54:24.447Z,26.40
2018-07-31T02:55:29.092Z,26.30
2018-07-31T02:56:32.507Z,26.30
2018-07-31T02:57:36.043Z,26.30
2018-07-31T02:58:39.420Z,26.30
2018-07-31T02:59:42.803Z,26.30
2018-07-31T03:00:47.180Z,26.30
2018-07-31T03:01:50.616Z,26.30
2018-07-31T03:02:53.993Z,26.30
2018-07-31T03:03:57.371Z,26.30
2018-07-31T03:05:00.749Z,26.30
2018-07-31T03:06:05.128Z,26.30
2018-07-31T03:07:08.583Z,26.30
2018-07-31T03:08:11.978Z,26.30
2018-07-31T03:09:15.351Z,26.30
2018-07-31T03:10:19.867Z,26.30
2018-07-31T03:11:23.825Z,26.30
2018-07-31T03:12:27.244Z,26.30
2018-07-31T03:13:30.619Z,26.20
2018-07-31T03:14:33.995Z,26.20
2018-07-31T03:15:38.445Z,26.20
2018-07-31T03:18:48.021Z,26.20
2018-07-31T03:19:51.399Z,26.20
2018-07-31T03:20:55.778Z,26.20
2018-07-31T03:21:59.216Z,26.20
2018-07-31T03:23:02.598Z,26.20
2018-07-31T03:24:06.329Z,26.20
2018-07-31T03:25:10.736Z,26.20
2018-07-31T03:27:18.024Z,26.20
2018-07-31T03:28:21.408Z,26.20
2018-07-31T03:29:25.526Z,26.20
2018-07-31T03:30:30.210Z,26.20
2018-07-31T03:31:33.639Z,26.20
2018-07-31T03:33:40.127Z,26.20
2018-07-31T03:34:43.499Z,26.20
2018-07-31T03:36:52.095Z,26.10
2018-07-31T03:37:55.491Z,26.10
2018-07-31T03:40:01.934Z,26.10
2018-07-31T03:41:06.260Z,26.00
2018-07-31T03:42:09.671Z,26.10
2018-07-31T03:43:13.063Z,26.10
2018-07-31T03:44:16.439Z,26.10
2018-07-31T03:45:20.827Z,26.10
2018-07-31T03:47:34.601Z,26.00
2018-07-31T03:48:38.017Z,26.00
2018-07-31T03:49:41.377Z,26.00
2018-07-31T03:50:45.937Z,26.10
2018-07-31T03:51:49.327Z,26.10
2018-07-31T03:52:52.977Z,26.10
2018-07-31T03:53:56.371Z,26.00
2018-07-31T03:54:59.763Z,26.00
2018-07-31T03:56:04.307Z,26.00
2018-07-31T03:57:07.720Z,26.00
2018-07-31T03:58:11.103Z,26.00
2018-07-31T04:00:18.653Z,25.90
2018-07-31T04:01:23.738Z,25.90
2018-07-31T04:02:27.123Z,25.90
2018-07-31T04:03:30.502Z,25.90
2018-07-31T04:04:33.990Z,25.90
2018-07-31T04:05:38.438Z,25.90
2018-07-31T04:06:41.855Z,25.80
2018-07-31T04:09:51.447Z,25.90
2018-07-31T04:10:55.809Z,25.90
2018-07-31T04:13:02.275Z,25.90
2018-07-31T04:16:14.175Z,25.90
2018-07-31T04:17:17.579Z,25.90
2018-07-31T04:18:20.947Z,25.90
2018-07-31T04:20:29.035Z,25.90
2018-07-31T04:22:35.574Z,25.90
2018-07-31T04:23:38.963Z,25.90
2018-07-31T04:24:42.339Z,25.90
2018-07-31T04:25:47.365Z,25.90
2018-07-31T04:26:50.755Z,25.90
2018-07-31T04:27:54.447Z,25.90
2018-07-31T04:28:57.866Z,25.90
2018-07-31T04:30:01.298Z,25.90
2018-07-31T04:31:05.765Z,25.90
2018-07-31T04:32:09.179Z,25.90
2018-07-31T04:33:12.551Z,25.90
2018-07-31T04:34:15.927Z,25.90
2018-07-31T04:35:20.381Z,26.00
2018-07-31T04:36:24.693Z,26.00
2018-07-31T04:37:28.099Z,26.00
2018-07-31T04:38:31.475Z,26.00
2018-07-31T04:39:34.852Z,26.00
2018-07-31T04:40:39.345Z,26.00
2018-07-31T04:41:43.191Z,26.00
2018-07-31T04:42:46.571Z,26.00
2018-07-31T04:43:49.950Z,26.00
2018-07-31T04:44:53.331Z,26.00
2018-07-31T04:45:57.757Z,26.00
2018-07-31T04:47:01.163Z,26.00
2018-07-31T04:49:07.651Z,26.00
2018-07-31T04:50:12.150Z,26.00
2018-07-31T04:51:16.667Z,26.00
2018-07-31T04:52:20.071Z,26.00
2018-07-31T04:53:23.455Z,26.00
2018-07-31T04:54:26.831Z,26.00
2018-07-31T04:55:31.307Z,26.00
2018-07-31T04:58:40.895Z,26.00
2018-07-31T04:59:44.271Z,26.00
2018-07-31T05:00:48.740Z,26.00
2018-07-31T05:02:55.239Z,26.00
2018-07-31T05:03:58.619Z,26.00
2018-07-31T05:05:02.234Z,26.00
2018-07-31T05:06:06.654Z,26.00
2018-07-31T05:07:10.071Z,26.00
2018-07-31T05:08:13.535Z,26.00
2018-07-31T05:09:16.927Z,26.00
2018-07-31T05:10:21.572Z,26.00
2018-07-31T05:11:25.889Z,26.00
2018-07-31T05:12:29.324Z,26.00
2018-07-31T05:13:32.696Z,26.00
2018-07-31T05:14:36.078Z,26.00
2018-07-31T05:15:40.551Z,25.90
2018-07-31T05:16:43.935Z,25.90
2018-07-31T05:17:47.326Z,25.90
2018-07-31T05:18:50.747Z,25.90
2018-07-31T05:22:01.616Z,25.90
2018-07-31T05:23:05.011Z,25.90
2018-07-31T05:24:08.387Z,25.90
2018-07-31T05:25:13.494Z,25.90
2018-07-31T05:26:18.006Z,25.90
2018-07-31T05:27:21.407Z,25.90
2018-07-31T05:28:24.803Z,25.90
2018-07-31T05:29:28.179Z,25.90
2018-07-31T05:31:35.459Z,25.90
2018-07-31T05:32:39.381Z,25.90
2018-07-31T05:33:42.738Z,25.80
2018-07-31T05:36:53.399Z,25.90
2018-07-31T05:37:56.771Z,25.90
2018-07-31T05:39:02.540Z,25.90
2018-07-31T05:40:07.510Z,25.90
2018-07-31T05:41:13.012Z,25.90
2018-07-31T05:42:16.568Z,25.90
2018-07-31T05:43:20.175Z,25.90
2018-07-31T05:47:35.169Z,26.00
2018-07-31T05:48:38.552Z,26.00
2018-07-31T05:49:42.295Z,26.00
2018-07-31T05:50:48.508Z,26.00
2018-07-31T05:51:52.980Z,26.10
2018-07-31T05:52:57.368Z,26.10
2018-07-31T05:54:01.040Z,26.10
2018-07-31T05:55:05.845Z,26.10
2018-07-31T05:56:10.974Z,26.10
2018-07-31T05:57:14.719Z,26.10
2018-07-31T05:58:18.188Z,26.20
2018-07-31T05:59:21.563Z,26.20
2018-07-31T06:00:26.179Z,26.20
2018-07-31T06:01:30.789Z,26.30
2018-07-31T06:02:34.215Z,26.30
2018-07-31T06:03:37.782Z,26.30
2018-07-31T06:04:41.109Z,26.30
2018-07-31T06:06:49.388Z,26.40
2018-07-31T06:07:53.283Z,26.40
2018-07-31T06:08:56.679Z,26.40
2018-07-31T06:10:00.071Z,26.40
2018-07-31T06:11:04.548Z,26.40
2018-07-31T06:12:08.012Z,26.40
2018-07-31T06:13:11.731Z,26.40
2018-07-31T06:14:15.187Z,26.50
2018-07-31T06:15:20.671Z,26.50
2018-07-31T06:16:25.761Z,26.50
2018-07-31T06:17:29.399Z,26.50
2018-07-31T06:18:32.783Z,26.50
2018-07-31T06:19:36.170Z,26.60
2018-07-31T06:20:40.847Z,26.60
2018-07-31T06:21:45.512Z,26.60
2018-07-31T06:22:48.914Z,26.60
2018-07-31T06:24:55.406Z,26.60
2018-07-31T06:26:00.332Z,26.70
2018-07-31T06:27:03.748Z,26.70
2018-07-31T06:28:07.139Z,26.70
2018-07-31T06:29:10.755Z,26.70
2018-07-31T06:30:15.679Z,26.80
2018-07-31T06:31:20.219Z,26.80
2018-07-31T06:32:23.635Z,26.80
2018-07-31T06:33:27.055Z,26.80
2018-07-31T06:35:35.846Z,26.80
2018-07-31T06:36:40.729Z,26.80
2018-07-31T06:37:44.136Z,26.80
2018-07-31T06:38:47.753Z,26.80
2018-07-31T06:39:51.139Z,26.90
2018-07-31T06:40:55.566Z,26.90
2018-07-31T06:43:02.075Z,26.80
2018-07-31T06:44:05.795Z,26.80
2018-07-31T06:45:10.222Z,26.90
2018-07-31T06:46:14.739Z,26.90
2018-07-31T06:47:18.164Z,26.90
2018-07-31T06:48:21.796Z,26.90
2018-07-31T06:49:25.261Z,26.90
2018-07-31T06:50:29.429Z,26.90
2018-07-31T06:51:35.170Z,27.00
2018-07-31T06:53:41.983Z,27.00
2018-07-31T06:54:45.353Z,27.00
2018-07-31T06:55:49.898Z,27.00
2018-07-31T06:56:53.351Z,27.00
2018-07-31T06:57:56.751Z,27.10
2018-07-31T06:59:00.133Z,27.10
2018-07-31T07:00:04.135Z,27.10
2018-07-31T07:01:08.369Z,27.10
2018-07-31T07:02:11.885Z,27.10
2018-07-31T07:03:15.275Z,27.20
2018-07-31T07:04:18.681Z,27.20
2018-07-31T07:06:26.830Z,27.20
2018-07-31T07:08:33.323Z,27.30
2018-07-31T07:09:36.701Z,27.30
2018-07-31T07:10:41.201Z,27.30
2018-07-31T07:12:47.675Z,27.40
2018-07-31T07:13:51.075Z,27.40
2018-07-31T07:14:54.444Z,27.40
2018-07-31T07:15:58.851Z,27.40
2018-07-31T07:17:02.237Z,27.40
2018-07-31T07:18:05.907Z,27.40
2018-07-31T07:19:09.288Z,27.40
2018-07-31T07:20:13.424Z,27.40
2018-07-31T07:21:18.183Z,27.40
2018-07-31T07:22:21.595Z,27.40
2018-07-31T07:23:24.987Z,27.40
2018-07-31T07:24:28.380Z,27.40
2018-07-31T07:25:32.738Z,27.40
2018-07-31T07:26:36.127Z,27.40
2018-07-31T07:27:39.536Z,27.40
2018-07-31T07:28:42.922Z,27.40
2018-07-31T07:29:46.326Z,27.40
2018-07-31T07:30:50.748Z,27.40
2018-07-31T07:31:54.155Z,27.40
2018-07-31T07:32:57.531Z,27.40
2018-07-31T07:34:01.010Z,27.40
2018-07-31T07:35:04.494Z,27.30
2018-07-31T07:36:08.989Z,27.30
2018-07-31T07:37:12.390Z,27.30
2018-07-31T07:38:15.791Z,27.30
2018-07-31T07:39:19.167Z,27.30
2018-07-31T07:40:23.452Z,27.30
2018-07-31T07:41:27.880Z,27.30
2018-07-31T07:42:31.295Z,27.30
2018-07-31T07:43:34.675Z,27.40
2018-07-31T07:44:38.051Z,27.40
2018-07-31T07:45:42.697Z,27.40
2018-07-31T07:46:46.107Z,27.40
2018-07-31T07:47:49.559Z,27.40
2018-07-31T07:48:52.971Z,27.50
2018-07-31T07:49:56.371Z,27.50
2018-07-31T07:51:00.897Z,27.50
2018-07-31T07:52:04.311Z,27.60
2018-07-31T07:53:07.711Z,27.60
2018-07-31T07:54:11.236Z,27.60
2018-07-31T07:55:17.067Z,27.60
2018-07-31T07:56:21.560Z,27.70
2018-07-31T07:58:28.107Z,27.70
2018-07-31T07:59:31.476Z,27.80
2018-07-31T08:00:36.006Z,27.80
2018-07-31T08:01:39.391Z,27.90
2018-07-31T08:02:42.775Z,27.90
2018-07-31T08:03:46.169Z,27.90
2018-07-31T08:04:49.657Z,28.00
2018-07-31T08:05:54.980Z,28.00
2018-07-31T08:08:01.495Z,28.10
2018-07-31T08:09:07.463Z,28.10
2018-07-31T08:10:12.195Z,28.20
2018-07-31T08:11:17.814Z,28.20
2018-07-31T08:12:21.207Z,28.20
2018-07-31T08:13:24.685Z,28.20
2018-07-31T08:14:28.055Z,28.20
2018-07-31T08:15:32.583Z,28.20
2018-07-31T08:16:36.028Z,28.20
2018-07-31T08:17:39.483Z,28.20
2018-07-31T08:18:42.883Z,28.20
2018-07-31T08:19:46.259Z,28.20
2018-07-31T08:20:51.758Z,28.20
2018-07-31T08:21:55.171Z,28.20
2018-07-31T08:22:58.539Z,28.20
2018-07-31T08:24:01.923Z,28.20
2018-07-31T08:25:06.129Z,28.10
2018-07-31T08:26:10.936Z,28.10
2018-07-31T08:27:14.348Z,28.10
2018-07-31T08:28:17.723Z,28.10
2018-07-31T08:29:21.144Z,28.10
2018-07-31T08:30:25.772Z,28.10
2018-07-31T08:31:30.793Z,28.00
2018-07-31T08:32:34.183Z,28.00
2018-07-31T08:33:37.653Z,28.10
2018-07-31T08:34:40.959Z,28.00
2018-07-31T08:35:45.787Z,28.00
2018-07-31T08:36:49.191Z,28.00
2018-07-31T08:37:52.943Z,28.00
2018-07-31T08:38:56.616Z,28.10
2018-07-31T08:40:00.003Z,28.00
2018-07-31T08:41:04.535Z,28.10
2018-07-31T08:42:07.936Z,28.10
2018-07-31T08:43:11.327Z,28.10
2018-07-31T08:44:14.727Z,28.10
2018-07-31T08:45:19.113Z,28.20
2018-07-31T08:46:23.928Z,28.20
2018-07-31T08:47:27.357Z,28.30
2018-07-31T08:48:30.719Z,28.30
2018-07-31T08:50:39.469Z,28.40
2018-07-31T08:51:42.887Z,28.40
2018-07-31T08:52:46.271Z,28.40
2018-07-31T08:53:49.655Z,28.40
2018-07-31T08:54:53.518Z,28.40
2018-07-31T08:55:58.016Z,28.40
2018-07-31T08:57:01.816Z,28.40
2018-07-31T08:58:05.280Z,28.40
2018-07-31T08:59:08.663Z,28.50
2018-07-31T09:01:17.364Z,28.50
2018-07-31T09:02:20.751Z,28.50
2018-07-31T09:03:24.140Z,28.50
2018-07-31T09:04:27.510Z,28.50
2018-07-31T09:05:32.604Z,28.50
2018-07-31T09:06:36.023Z,28.50
2018-07-31T09:07:39.391Z,28.50
2018-07-31T09:08:42.931Z,28.50
2018-07-31T09:09:46.371Z,28.50
2018-07-31T09:10:50.806Z,28.50
2018-07-31T09:11:54.203Z,28.50
2018-07-31T09:12:57.595Z,28.50
2018-07-31T09:14:00.983Z,28.60
2018-07-31T09:15:06.015Z,28.60
2018-07-31T09:16:10.593Z,28.60
2018-07-31T09:17:13.980Z,28.60
2018-07-31T09:18:17.364Z,28.60
2018-07-31T09:19:20.731Z,28.70
2018-07-31T09:20:25.539Z,28.70
2018-07-31T09:21:29.595Z,28.80
2018-07-31T09:22:32.962Z,28.80
2018-07-31T09:23:36.363Z,28.90
2018-07-31T09:24:39.826Z,28.90
2018-07-31T09:25:47.181Z,28.90
2018-07-31T09:26:50.668Z,29.00
2018-07-31T09:27:54.035Z,29.00
2018-07-31T09:28:57.419Z,29.00
2018-07-31T09:30:00.809Z,29.10
2018-07-31T09:31:10.619Z,29.20
2018-07-31T09:32:14.041Z,29.20
2018-07-31T09:33:17.498Z,29.30
2018-07-31T09:34:20.907Z,29.40
2018-07-31T09:35:26.020Z,29.50
2018-07-31T09:36:30.113Z,29.60
2018-07-31T09:37:33.479Z,29.70
2018-07-31T09:38:36.858Z,29.70
2018-07-31T09:39:40.256Z,29.80
2018-07-31T09:40:45.269Z,29.90
2018-07-31T09:41:48.651Z,29.90
2018-07-31T09:42:52.028Z,30.00
2018-07-31T09:43:55.403Z,30.10
2018-07-31T09:44:58.799Z,30.10
2018-07-31T09:46:03.838Z,30.10
2018-07-31T09:47:07.219Z,30.10
2018-07-31T09:48:10.667Z,30.20
2018-07-31T09:49:14.045Z,30.20
2018-07-31T09:50:18.446Z,30.30
2018-07-31T09:51:22.952Z,30.30
2018-07-31T09:52:26.347Z,30.30
2018-07-31T09:53:29.711Z,30.30
2018-07-31T09:54:33.078Z,30.40
2018-07-31T09:55:37.710Z,30.30
2018-07-31T09:56:41.154Z,30.40
2018-07-31T09:57:44.520Z,30.30
2018-07-31T09:58:47.887Z,30.40
2018-07-31T09:59:51.264Z,30.30
2018-07-31T10:01:00.793Z,30.40
2018-07-31T10:02:04.201Z,30.30
2018-07-31T10:03:07.569Z,30.30
2018-07-31T10:04:10.942Z,30.30
2018-07-31T10:05:15.797Z,30.30
2018-07-31T10:06:20.287Z,30.30
2018-07-31T10:07:23.684Z,30.40
2018-07-31T10:08:27.056Z,30.40
2018-07-31T10:09:30.443Z,30.30
2018-07-31T10:11:37.799Z,30.30
2018-07-31T10:12:41.186Z,30.30
2018-07-31T10:13:44.563Z,30.30
2018-07-31T10:14:47.939Z,30.30
2018-07-31T10:15:52.368Z,30.20
2018-07-31T10:19:02.039Z,30.20
2018-07-31T10:20:06.321Z,30.20
2018-07-31T10:21:10.817Z,30.10
2018-07-31T10:22:14.219Z,30.10
2018-07-31T10:23:17.595Z,30.10
2018-07-31T10:24:21.275Z,30.10
2018-07-31T10:25:25.733Z,30.10
2018-07-31T10:26:29.871Z,30.10
2018-07-31T10:27:33.253Z,30.10
2018-07-31T10:28:36.619Z,30.10
2018-07-31T10:29:39.992Z,30.10
2018-07-31T10:31:47.243Z,30.10
2018-07-31T10:32:50.635Z,30.00
2018-07-31T10:33:54.195Z,30.10
2018-07-31T10:34:57.693Z,30.00
2018-07-31T10:36:02.134Z,30.10
2018-07-31T10:37:05.656Z,30.00
2018-07-31T10:38:09.039Z,30.00
2018-07-31T10:39:12.422Z,30.00
2018-07-31T10:42:23.937Z,30.00
2018-07-31T10:43:27.327Z,30.00
2018-07-31T10:44:30.699Z,30.00
2018-07-31T10:45:35.040Z,30.00
2018-07-31T10:46:38.611Z,30.00
2018-07-31T10:47:41.979Z,30.10
2018-07-31T10:48:45.367Z,30.10
2018-07-31T10:49:48.743Z,30.10
2018-07-31T10:50:54.496Z,30.10
2018-07-31T10:51:57.888Z,30.10
2018-07-31T10:53:01.252Z,30.10
2018-07-31T10:54:04.640Z,30.10
2018-07-31T10:55:08.586Z,30.10
2018-07-31T10:56:12.406Z,30.10
2018-07-31T10:57:15.955Z,30.20
2018-07-31T10:58:19.359Z,30.20
2018-07-31T10:59:22.723Z,30.20
2018-07-31T11:00:27.184Z,30.20
2018-07-31T11:01:30.948Z,30.20
2018-07-31T11:02:34.327Z,30.20
2018-07-31T11:03:37.735Z,30.20
2018-07-31T11:04:41.119Z,30.20
2018-07-31T11:05:45.423Z,30.10
2018-07-31T11:07:52.293Z,30.20
2018-07-31T11:08:55.705Z,30.10
2018-07-31T11:09:59.155Z,30.20
2018-07-31T11:11:03.484Z,30.20
2018-07-31T11:12:07.225Z,30.20
2018-07-31T11:13:10.618Z,30.20
2018-07-31T11:14:13.975Z,30.30
2018-07-31T11:15:19.212Z,30.30
2018-07-31T11:16:23.518Z,30.30
2018-07-31T11:17:26.978Z,30.50
2018-07-31T11:18:30.360Z,30.50
2018-07-31T11:19:33.723Z,30.60
2018-07-31T11:20:39.059Z,30.60
2018-07-31T11:21:42.467Z,30.60
2018-07-31T11:22:45.835Z,30.70
2018-07-31T11:23:49.203Z,30.70
2018-07-31T11:24:52.579Z,30.80
2018-07-31T11:25:57.718Z,30.80
2018-07-31T11:27:01.115Z,30.80
2018-07-31T11:28:04.487Z,30.80
2018-07-31T11:29:07.859Z,30.90
2018-07-31T11:30:12.243Z,30.90
2018-07-31T11:31:16.627Z,30.90
2018-07-31T11:32:20.031Z,30.90
2018-07-31T11:33:23.404Z,30.90
2018-07-31T11:34:26.775Z,30.90
2018-07-31T11:35:31.825Z,31.00
2018-07-31T11:36:35.206Z,31.00
2018-07-31T11:37:38.584Z,31.10
2018-07-31T11:38:41.967Z,31.00
2018-07-31T11:39:45.331Z,31.00
2018-07-31T11:40:49.547Z,30.90
2018-07-31T11:42:56.051Z,30.90
2018-07-31T11:43:59.453Z,30.90
2018-07-31T11:45:02.858Z,30.80
2018-07-31T11:46:07.395Z,30.80
2018-07-31T11:48:13.923Z,30.70
2018-07-31T11:49:17.287Z,30.60
2018-07-31T11:50:21.712Z,30.60
2018-07-31T11:51:26.175Z,30.60
2018-07-31T11:52:29.591Z,30.60
2018-07-31T11:53:32.955Z,30.60
2018-07-31T11:54:36.327Z,30.60
2018-07-31T11:55:40.809Z,30.60
2018-07-31T11:56:44.223Z,30.60
2018-07-31T11:57:47.591Z,30.60
2018-07-31T11:58:50.959Z,30.60
2018-07-31T11:59:54.323Z,30.60
2018-07-31T12:00:58.852Z,30.60
2018-07-31T12:02:02.272Z,30.60
2018-07-31T12:03:05.651Z,30.60
2018-07-31T12:04:09.709Z,30.60
2018-07-31T12:05:14.181Z,30.60
2018-07-31T12:06:19.855Z,30.60
2018-07-31T12:07:23.276Z,30.60
2018-07-31T12:08:26.647Z,30.70
2018-07-31T12:09:30.028Z,30.70
2018-07-31T12:10:34.496Z,30.70
2018-07-31T12:11:37.905Z,30.80
2018-07-31T12:14:47.409Z,30.80
2018-07-31T12:15:51.736Z,30.90
2018-07-31T12:16:55.123Z,30.90
2018-07-31T12:17:58.679Z,30.90
2018-07-31T12:19:02.052Z,30.90
2018-07-31T12:20:06.896Z,30.90
2018-07-31T12:21:11.364Z,31.00
2018-07-31T12:22:14.788Z,31.10
2018-07-31T12:23:18.151Z,31.10
2018-07-31T12:24:21.524Z,31.20
2018-07-31T12:25:25.983Z,31.10
2018-07-31T12:26:29.895Z,31.10
2018-07-31T12:27:33.279Z,31.10
2018-07-31T12:28:36.651Z,31.10
2018-07-31T12:29:40.035Z,31.10
2018-07-31T12:30:44.435Z,31.10
2018-07-31T12:31:47.832Z,31.20
2018-07-31T12:32:51.255Z,31.20
2018-07-31T12:34:57.803Z,31.30
2018-07-31T12:36:02.396Z,31.30
2018-07-31T12:37:06.024Z,31.30
2018-07-31T12:38:09.443Z,31.30
2018-07-31T12:39:13.239Z,31.40
2018-07-31T12:40:17.765Z,31.40
2018-07-31T12:41:22.256Z,31.40
2018-07-31T12:42:25.679Z,31.50
2018-07-31T12:43:29.048Z,31.50
2018-07-31T12:44:32.423Z,31.60
2018-07-31T12:45:36.850Z,31.60
2018-07-31T12:46:40.239Z,31.70
2018-07-31T12:47:43.635Z,31.70
2018-07-31T12:48:47.011Z,31.70
2018-07-31T12:49:50.388Z,31.70
2018-07-31T12:50:54.901Z,31.70
2018-07-31T12:51:58.311Z,31.60
2018-07-31T12:53:01.703Z,31.60
2018-07-31T12:54:05.091Z,31.50
2018-07-31T12:55:09.660Z,31.50
2018-07-31T12:56:13.079Z,31.50
2018-07-31T12:57:16.471Z,31.50
2018-07-31T12:58:19.851Z,31.60
2018-07-31T12:59:23.225Z,31.60
2018-07-31T13:00:27.545Z,31.70
2018-07-31T13:01:31.103Z,31.70
2018-07-31T13:02:34.587Z,31.70
2018-07-31T13:03:37.971Z,31.80
2018-07-31T13:04:41.435Z,31.80
2018-07-31T13:05:46.339Z,31.90
2018-07-31T13:06:49.748Z,31.90
2018-07-31T13:07:53.115Z,32.00
2018-07-31T13:08:56.499Z,32.00
2018-07-31T13:09:59.870Z,32.00
2018-07-31T13:11:04.886Z,32.00
2018-07-31T13:12:08.360Z,32.10
2018-07-31T13:13:11.750Z,32.10
2018-07-31T13:14:15.119Z,32.10
2018-07-31T13:15:19.637Z,32.10
2018-07-31T13:16:24.200Z,32.10
2018-07-31T13:17:27.596Z,32.00
2018-07-31T13:18:30.967Z,32.00
2018-07-31T13:19:34.351Z,31.90
2018-07-31T13:20:38.876Z,31.80
2018-07-31T13:21:42.292Z,31.90
2018-07-31T13:22:45.690Z,31.90
2018-07-31T13:23:49.047Z,31.90
2018-07-31T13:24:52.451Z,31.90
2018-07-31T13:25:56.911Z,32.00
2018-07-31T13:27:00.309Z,32.00
2018-07-31T13:28:03.742Z,32.10
2018-07-31T13:29:07.112Z,32.10
2018-07-31T13:30:11.554Z,32.20
2018-07-31T13:31:16.109Z,32.30
2018-07-31T13:32:19.511Z,32.30
2018-07-31T13:33:22.900Z,32.30
2018-07-31T13:34:26.287Z,32.40
2018-07-31T13:35:30.744Z,32.40
2018-07-31T13:36:34.153Z,32.50
2018-07-31T13:37:37.532Z,32.50
2018-07-31T13:38:40.907Z,32.50
2018-07-31T13:39:44.271Z,32.50
2018-07-31T13:40:48.664Z,32.50
2018-07-31T13:41:52.056Z,32.50
2018-07-31T13:42:55.431Z,32.50
2018-07-31T13:43:58.875Z,32.50
2018-07-31T13:45:02.591Z,32.50
2018-07-31T13:46:07.150Z,32.40
2018-07-31T13:47:10.563Z,32.40
2018-07-31T13:48:14.439Z,32.30
2018-07-31T13:49:17.811Z,32.30
2018-07-31T13:50:22.234Z,32.30
2018-07-31T13:51:26.800Z,32.20
2018-07-31T13:52:30.179Z,32.20
2018-07-31T13:53:33.567Z,32.20
2018-07-31T13:54:36.947Z,32.20
2018-07-31T13:55:42.088Z,32.20
2018-07-31T13:56:45.715Z,32.20
2018-07-31T13:57:49.096Z,32.20
2018-07-31T13:58:52.475Z,32.10
2018-07-31T13:59:55.839Z,32.10
2018-07-31T14:01:00.308Z,32.10
2018-07-31T14:02:03.735Z,32.00
2018-07-31T14:03:07.131Z,32.00
2018-07-31T14:04:10.511Z,31.90
2018-07-31T14:05:15.043Z,31.90
2018-07-31T14:06:20.436Z,31.90
2018-07-31T14:07:23.912Z,32.00
2018-07-31T14:08:27.283Z,32.00
2018-07-31T14:09:30.675Z,32.10
2018-07-31T14:11:38.347Z,32.30
2018-07-31T14:12:41.739Z,32.50
2018-07-31T14:13:45.129Z,32.60
2018-07-31T14:14:48.495Z,32.60
2018-07-31T14:15:54.102Z,32.80
2018-07-31T14:16:57.506Z,32.80
2018-07-31T14:18:01.003Z,32.90
2018-07-31T14:19:04.595Z,32.90
2018-07-31T14:20:09.214Z,32.90
2018-07-31T14:21:13.645Z,32.80
2018-07-31T14:22:17.043Z,32.70
2018-07-31T14:23:20.424Z,32.60
2018-07-31T14:24:23.851Z,32.50
2018-07-31T14:26:31.060Z,32.30
2018-07-31T14:27:34.427Z,32.30
2018-07-31T14:28:37.935Z,32.30
2018-07-31T14:29:41.310Z,32.20
2018-07-31T14:30:45.774Z,32.20
2018-07-31T14:31:49.131Z,32.10
2018-07-31T14:32:52.501Z,32.10
2018-07-31T14:33:55.883Z,32.00
2018-07-31T14:34:59.252Z,31.90
2018-07-31T14:36:03.862Z,31.90
2018-07-31T14:37:07.307Z,31.90
2018-07-31T14:38:10.853Z,31.90
2018-07-31T14:39:14.243Z,32.00
2018-07-31T14:40:19.965Z,31.90
2018-07-31T14:41:24.643Z,31.90
2018-07-31T14:42:28.027Z,31.90
2018-07-31T14:43:31.407Z,31.90
2018-07-31T14:44:34.807Z,32.00
2018-07-31T14:45:39.192Z,32.10
2018-07-31T14:46:42.579Z,32.10
2018-07-31T14:47:45.947Z,32.20
2018-07-31T14:48:49.319Z,32.30
2018-07-31T14:49:52.711Z,32.30
2018-07-31T14:50:57.635Z,32.40
2018-07-31T14:52:01.110Z,32.50
2018-07-31T14:53:04.563Z,32.60